createdAt,value
2016-02-05T00:00:20.977Z,44.86
2016-02-05T00:01:40.202Z,44.98
2016-02-05T00:02:21.608Z,44.96
2016-02-05T00:03:46.722Z,44.98
2016-02-05T00:04:36.945Z,44.89
2016-02-05T00:05:49.900Z,44.86
2016-02-05T00:06:46.606Z,45.07
2016-02-05T00:07:53.016Z,45.05
2016-02-05T00:09:05.127Z,45.25
2016-02-05T00:09:33.880Z,45.25
2016-02-05T00:10:33.962Z,44.96
2016-02-05T00:11:46.652Z,44.96
2016-02-05T00:12:46.686Z,45.05
2016-02-05T00:13:59.720Z,45.05
2016-02-05T00:14:53.399Z,44.98
2016-02-05T00:16:05.527Z,44.86
2016-02-05T00:17:05.358Z,45.15
2016-02-05T00:17:43.612Z,45.34
2016-02-05T00:19:14.942Z,45.15
2016-02-05T00:19:53.226Z,44.96
2016-02-05T00:21:24.557Z,44.76
2016-02-05T00:22:34.095Z,44.86
2016-02-05T00:23:08.454Z,45.15
2016-02-05T00:24:08.487Z,44.86
2016-02-05T00:25:15.417Z,45.15
2016-02-05T00:26:12.436Z,45.15
2016-02-05T00:27:12.532Z,44.96
2016-02-05T00:28:12.503Z,44.96
2016-02-05T00:29:12.522Z,44.96
2016-02-05T00:30:25.140Z,45.05
2016-02-05T00:31:12.409Z,45.05
2016-02-05T00:32:12.587Z,44.96
2016-02-05T00:33:12.638Z,44.76
2016-02-05T00:34:14.063Z,44.86
2016-02-05T00:36:26.687Z,45.05
2016-02-05T00:37:44.505Z,44.96
2016-02-05T00:38:41.133Z,44.86
2016-02-05T00:39:47.605Z,44.96
2016-02-05T00:40:47.622Z,44.76
2016-02-05T00:43:03.664Z,44.96
2016-02-05T00:44:03.700Z,44.96
2016-02-05T00:45:03.749Z,45.07
2016-02-05T00:46:04.361Z,44.86
2016-02-05T00:47:03.786Z,44.76
2016-02-05T00:48:03.836Z,45.05
2016-02-05T00:49:03.854Z,44.96
2016-02-05T00:50:04.481Z,44.96
2016-02-05T00:51:03.922Z,44.86
2016-02-05T00:52:03.925Z,44.96
2016-02-05T00:53:16.709Z,44.96
2016-02-05T00:54:03.992Z,44.96
2016-02-05T00:55:04.013Z,44.96
2016-02-05T00:56:23.251Z,44.96
2016-02-05T00:57:07.192Z,44.96
2016-02-05T00:58:26.369Z,44.86
2016-02-05T00:59:07.403Z,44.96
2016-02-05T01:00:38.534Z,44.86
2016-02-05T01:01:07.846Z,44.96
2016-02-05T01:02:07.287Z,44.96
2016-02-05T01:03:08.726Z,44.96
2016-02-05T01:04:26.526Z,44.96
2016-02-05T01:05:26.576Z,45.05
2016-02-05T01:06:33.065Z,44.96
2016-02-05T01:07:38.710Z,44.96
2016-02-05T01:08:40.166Z,44.96
2016-02-05T01:09:07.463Z,44.96
2016-02-05T01:10:07.496Z,45.05
2016-02-05T01:11:07.530Z,45.05
2016-02-05T01:12:13.845Z,45.05
2016-02-05T01:13:13.865Z,44.96
2016-02-05T01:14:26.852Z,44.96
2016-02-05T01:15:07.636Z,44.96
2016-02-05T01:16:38.969Z,44.96
2016-02-05T01:17:22.844Z,44.96
2016-02-05T01:18:22.867Z,45.05
2016-02-05T01:19:22.917Z,45.05
2016-02-05T01:20:35.671Z,45.05
2016-02-05T01:21:23.577Z,44.86
2016-02-05T01:22:48.645Z,44.96
2016-02-05T01:23:36.351Z,45.05
2016-02-05T01:24:54.353Z,44.86
2016-02-05T01:25:46.029Z,44.96
2016-02-05T01:27:26.896Z,44.96
2016-02-05T01:28:26.899Z,44.96
2016-02-05T01:29:27.635Z,45.05
2016-02-05T01:30:26.966Z,45.15
2016-02-05T01:31:26.985Z,45.05
2016-02-05T01:32:39.755Z,45.05
2016-02-05T01:33:27.068Z,44.96
2016-02-05T01:34:46.261Z,44.96
2016-02-05T01:35:39.830Z,45.05
2016-02-05T01:36:27.111Z,44.96
2016-02-05T01:37:46.351Z,44.96
2016-02-05T01:39:52.888Z,45.05
2016-02-05T01:40:27.341Z,45.05
2016-02-05T01:41:27.875Z,44.96
2016-02-05T01:42:27.299Z,44.86
2016-02-05T01:43:33.571Z,45.05
2016-02-05T01:44:27.352Z,45.05
2016-02-05T01:45:27.385Z,44.96
2016-02-05T01:46:27.404Z,45.05
2016-02-05T01:47:33.692Z,44.86
2016-02-05T01:48:27.458Z,45.25
2016-02-05T01:49:40.213Z,44.76
2016-02-05T01:50:27.494Z,45.05
2016-02-05T01:51:27.543Z,45.15
2016-02-05T01:52:27.577Z,44.86
2016-02-05T01:53:27.803Z,45.25
2016-02-05T01:54:40.370Z,45.15
2016-02-05T01:55:27.639Z,44.96
2016-02-05T01:56:27.673Z,44.96
2016-02-05T01:57:27.707Z,45.05
2016-02-05T01:58:27.734Z,44.96
2016-02-05T01:59:27.751Z,45.05
2016-02-05T02:00:27.801Z,45.05
2016-02-05T02:01:34.087Z,45.05
2016-02-05T02:02:27.837Z,45.05
2016-02-05T02:03:40.614Z,44.86
2016-02-05T02:04:27.911Z,44.86
2016-02-05T02:05:27.929Z,45.05
2016-02-05T02:06:40.683Z,45.05
2016-02-05T02:07:27.996Z,45.15
2016-02-05T02:08:28.015Z,45.25
2016-02-05T02:09:28.034Z,44.76
2016-02-05T02:10:40.790Z,45.15
2016-02-05T02:11:28.087Z,45.15
2016-02-05T02:12:47.343Z,44.67
2016-02-05T02:13:35.032Z,45.05
2016-02-05T02:14:28.157Z,45.05
2016-02-05T02:15:28.207Z,45.15
2016-02-05T02:16:28.226Z,45.15
2016-02-05T02:17:28.259Z,45.05
2016-02-05T02:18:28.293Z,45.25
2016-02-05T02:19:28.953Z,45.15
2016-02-05T02:20:28.332Z,45.05
2016-02-05T02:21:28.366Z,45.15
2016-02-05T02:22:28.400Z,45.25
2016-02-05T02:23:28.419Z,44.86
2016-02-05T02:24:28.547Z,44.76
2016-02-05T02:25:31.642Z,45.05
2016-02-05T02:26:31.661Z,44.76
2016-02-05T02:27:31.711Z,45.25
2016-02-05T02:28:31.716Z,45.15
2016-02-05T02:29:31.843Z,44.96
2016-02-05T02:30:31.789Z,45.15
2016-02-05T02:31:38.060Z,45.34
2016-02-05T02:32:31.810Z,45.15
2016-02-05T02:33:31.890Z,45.15
2016-02-05T02:34:31.878Z,45.25
2016-02-05T02:35:31.912Z,44.67
2016-02-05T02:36:31.962Z,45.15
2016-02-05T02:37:31.964Z,44.76
2016-02-05T02:38:31.982Z,44.67
2016-02-05T02:39:32.016Z,45.25
2016-02-05T02:40:32.052Z,44.96
2016-02-05T02:41:44.806Z,44.57
2016-02-05T02:42:32.102Z,44.67
2016-02-05T02:43:32.122Z,44.67
2016-02-05T02:44:32.146Z,45.25
2016-02-05T02:45:32.194Z,44.76
2016-02-05T02:46:44.996Z,44.67
2016-02-05T02:47:32.246Z,44.86
2016-02-05T02:48:32.281Z,44.86
2016-02-05T02:49:32.376Z,45.25
2016-02-05T02:50:32.332Z,44.96
2016-02-05T02:51:32.351Z,45.15
2016-02-05T02:52:32.370Z,44.86
2016-02-05T02:53:45.143Z,45.15
2016-02-05T02:54:33.034Z,45.05
2016-02-05T02:55:32.458Z,45.25
2016-02-05T02:56:45.214Z,45.25
2016-02-05T02:57:32.511Z,45.25
2016-02-05T02:59:42.114Z,44.96
2016-02-05T03:00:42.167Z,45.25
2016-02-05T03:01:42.154Z,45.05
2016-02-05T03:02:43.610Z,45.05
2016-02-05T03:03:42.238Z,44.96
2016-02-05T03:04:42.272Z,44.86
2016-02-05T03:05:42.291Z,45.05
2016-02-05T03:06:55.075Z,44.96
2016-02-05T03:07:42.342Z,44.76
2016-02-05T03:08:42.362Z,44.76
2016-02-05T03:09:42.395Z,45.25
2016-02-05T03:10:42.461Z,45.15
2016-02-05T03:11:55.197Z,44.96
2016-02-05T03:12:42.481Z,44.96
2016-02-05T03:13:42.517Z,44.96
2016-02-05T03:14:42.524Z,45.05
2016-02-05T03:15:43.169Z,45.25
2016-02-05T03:16:55.313Z,45.15
2016-02-05T03:17:42.675Z,44.86
2016-02-05T03:18:42.661Z,45.25
2016-02-05T03:19:55.402Z,45.15
2016-02-05T03:20:42.703Z,45.15
2016-02-05T03:21:42.721Z,45.25
2016-02-05T03:22:42.958Z,44.96
2016-02-05T03:23:42.789Z,44.86
2016-02-05T03:24:42.822Z,45.05
2016-02-05T03:25:55.560Z,44.86
2016-02-05T03:26:42.860Z,44.76
2016-02-05T03:28:08.566Z,44.76
2016-02-05T03:28:52.459Z,44.86
2016-02-05T03:29:52.493Z,45.25
2016-02-05T03:30:52.524Z,44.96
2016-02-05T03:31:52.542Z,44.76
2016-02-05T03:32:52.560Z,44.67
2016-02-05T03:34:05.359Z,45.05
2016-02-05T03:34:53.221Z,44.76
2016-02-05T03:36:11.849Z,45.05
2016-02-05T03:36:52.680Z,44.67
2016-02-05T03:37:52.700Z,44.57
2016-02-05T03:38:52.734Z,44.57
2016-02-05T03:39:52.767Z,45.25
2016-02-05T03:40:52.771Z,44.76
2016-02-05T03:41:52.805Z,45.15
2016-02-05T03:42:52.839Z,44.96
2016-02-05T03:43:52.873Z,45.25
2016-02-05T03:44:52.891Z,45.15
2016-02-05T03:45:52.942Z,45.25
2016-02-05T03:46:52.944Z,45.25
2016-02-05T03:47:59.245Z,44.67
2016-02-05T03:49:05.732Z,45.05
2016-02-05T03:50:12.235Z,45.05
2016-02-05T03:50:53.080Z,44.96
2016-02-05T03:51:53.100Z,44.86
2016-02-05T03:53:18.836Z,45.25
2016-02-05T03:53:53.135Z,44.96
2016-02-05T03:54:53.155Z,45.05
2016-02-05T03:55:53.187Z,44.86
2016-02-05T03:56:54.644Z,45.05
2016-02-05T03:57:53.257Z,44.96
2016-02-05T03:58:53.262Z,44.67
2016-02-05T03:59:53.317Z,45.25
2016-02-05T04:01:06.055Z,44.96
2016-02-05T04:01:53.355Z,45.25
2016-02-05T04:02:53.373Z,45.25
2016-02-05T04:03:53.391Z,44.76
2016-02-05T04:05:06.160Z,45.25
2016-02-05T04:05:53.462Z,44.86
2016-02-05T04:07:19.168Z,44.86
2016-02-05T04:08:06.249Z,44.86
2016-02-05T04:10:08.723Z,45.05
2016-02-05T04:11:08.757Z,44.96
2016-02-05T04:12:09.385Z,44.96
2016-02-05T04:13:21.544Z,45.15
2016-02-05T04:14:21.577Z,45.13
2016-02-05T04:15:34.549Z,44.86
2016-02-05T04:16:12.802Z,45.05
2016-02-05T04:17:12.835Z,45.05
2016-02-05T04:18:12.870Z,45.03
2016-02-05T04:19:12.888Z,45.05
2016-02-05T04:20:13.142Z,45.15
2016-02-05T04:21:25.691Z,44.96
2016-02-05T04:22:14.397Z,45.05
2016-02-05T04:23:38.686Z,45.05
2016-02-05T04:24:22.534Z,45.03
2016-02-05T04:25:48.272Z,44.96
2016-02-05T04:26:35.319Z,44.96
2016-02-05T04:27:22.635Z,44.86
2016-02-05T04:29:32.217Z,45.05
2016-02-05T04:30:41.753Z,45.05
2016-02-05T04:31:42.006Z,44.86
2016-02-05T04:32:41.799Z,44.86
2016-02-05T04:33:41.825Z,44.86
2016-02-05T04:34:42.053Z,45.05
2016-02-05T04:35:41.861Z,45.25
2016-02-05T04:36:48.137Z,44.96
2016-02-05T04:37:48.183Z,44.96
2016-02-05T04:38:54.667Z,45.25
2016-02-05T04:39:41.964Z,45.22
2016-02-05T04:41:01.184Z,44.76
2016-02-05T04:41:42.028Z,44.76
2016-02-05T04:44:22.687Z,45.25
2016-02-05T04:46:13.424Z,45.25
2016-02-05T04:46:26.003Z,45.25
2016-02-05T04:47:26.019Z,44.76
2016-02-05T04:48:26.037Z,44.76
2016-02-05T04:49:38.790Z,45.15
2016-02-05T04:50:26.089Z,44.67
2016-02-05T04:51:26.186Z,44.96
2016-02-05T04:52:38.876Z,44.96
2016-02-05T04:53:26.176Z,45.05
2016-02-05T04:54:45.431Z,45.05
2016-02-05T04:55:38.978Z,44.96
2016-02-05T04:56:26.250Z,45.05
2016-02-05T04:57:51.958Z,45.05
2016-02-05T04:59:38.462Z,45.05
2016-02-05T05:00:38.498Z,44.96
2016-02-05T05:02:53.755Z,44.96
2016-02-05T05:03:53.778Z,44.96
2016-02-05T05:05:25.108Z,44.86
2016-02-05T05:06:03.594Z,45.15
2016-02-05T05:07:29.269Z,45.25
2016-02-05T05:08:03.633Z,45.25
2016-02-05T05:09:34.963Z,45.15
2016-02-05T05:10:10.355Z,45.15
2016-02-05T05:12:48.193Z,45.15
2016-02-05T05:13:22.568Z,45.05
2016-02-05T05:15:32.135Z,45.34
2016-02-05T05:16:32.169Z,45.34
2016-02-05T05:17:45.050Z,45.44
2016-02-05T05:18:32.222Z,45.63
2016-02-05T05:19:51.462Z,45.53
2016-02-05T05:20:45.027Z,45.63
2016-02-05T05:22:03.624Z,45.44
2016-02-05T05:22:41.921Z,45.44
2016-02-05T05:24:13.255Z,45.63
2016-02-05T05:24:51.477Z,45.53
2016-02-05T05:26:17.198Z,45.73
2016-02-05T05:27:08.185Z,45.63
2016-02-05T05:28:20.813Z,45.63
2016-02-05T05:29:08.241Z,45.63
2016-02-05T05:30:27.481Z,45.63
2016-02-05T05:31:09.718Z,45.44
2016-02-05T05:32:39.627Z,45.34
2016-02-05T05:33:23.551Z,45.15
2016-02-05T05:34:23.586Z,45.15
2016-02-05T05:35:26.667Z,45.25
2016-02-05T05:36:52.394Z,45.34
2016-02-05T05:38:38.882Z,44.76
2016-02-05T05:39:38.916Z,45.05
2016-02-05T05:40:38.950Z,44.96
2016-02-05T05:41:51.704Z,44.76
2016-02-05T05:42:39.001Z,44.76
2016-02-05T05:44:04.680Z,44.45
2016-02-05T05:44:48.589Z,44.48
2016-02-05T05:46:07.826Z,44.38
2016-02-05T05:46:53.094Z,44.48
2016-02-05T05:49:08.944Z,44.45
2016-02-05T05:50:08.978Z,44.07
2016-02-05T05:51:09.216Z,44.26
2016-02-05T05:52:21.764Z,44.17
2016-02-05T05:53:09.253Z,43.71
2016-02-05T05:54:34.770Z,43.41
2016-02-05T05:55:09.242Z,43.61
2016-02-05T05:57:24.340Z,43.51
2016-02-05T05:58:24.375Z,43.71
2016-02-05T05:59:30.659Z,43.61
2016-02-05T06:00:24.412Z,43.41
2016-02-05T06:01:37.180Z,43.59
2016-02-05T06:02:30.746Z,43.61
2016-02-05T06:03:24.514Z,43.61
2016-02-05T06:04:37.251Z,43.4
2016-02-05T06:05:55.960Z,43.4
2016-02-05T06:06:40.460Z,43.4
2016-02-05T06:08:05.528Z,42.93
2016-02-05T06:08:37.419Z,42.91
2016-02-05T06:11:18.318Z,43.4
2016-02-05T06:11:52.758Z,42.53
2016-02-05T06:12:52.698Z,43.3
2016-02-05T06:14:05.483Z,42.63
2016-02-05T06:15:24.048Z,42.82
2016-02-05T06:16:07.909Z,43.11
2016-02-05T06:17:33.616Z,43.11
2016-02-05T06:20:14.516Z,42.24
2016-02-05T06:20:46.407Z,42.24
2016-02-05T06:23:56.078Z,43.3
2016-02-05T06:24:56.127Z,43.41
2016-02-05T06:25:56.145Z,43.51
2016-02-05T06:27:08.913Z,43.32
2016-02-05T06:27:56.401Z,43.51
2016-02-05T06:29:21.891Z,43.32
2016-02-05T06:29:56.231Z,43.51
2016-02-05T06:30:56.280Z,43.8
2016-02-05T06:31:56.142Z,43.99
2016-02-05T06:33:02.598Z,44.09
2016-02-05T06:33:56.335Z,44.09
2016-02-05T06:34:56.384Z,44.38
2016-02-05T06:36:15.622Z,44.48
2016-02-05T06:36:59.547Z,44.55
2016-02-05T06:39:40.583Z,44.17
2016-02-05T06:40:40.555Z,44.76
2016-02-05T06:41:40.574Z,44.67
2016-02-05T06:42:59.767Z,44.76
2016-02-05T06:43:42.048Z,44.76
2016-02-05T06:46:50.106Z,44.96
2016-02-05T06:47:50.155Z,44.86
2016-02-05T06:50:18.925Z,44.84
2016-02-05T06:51:31.070Z,45.25
2016-02-05T06:52:35.088Z,45.25
2016-02-05T06:53:34.996Z,44.96
2016-02-05T06:54:44.562Z,45.15
2016-02-05T06:55:44.580Z,45.22
2016-02-05T06:56:50.867Z,45.05
2016-02-05T06:57:50.901Z,45.51
2016-02-05T06:58:57.388Z,45.15
2016-02-05T06:59:44.682Z,45.13
2016-02-05T07:00:44.717Z,45.13
2016-02-05T07:01:51.003Z,44.93
2016-02-05T07:02:44.769Z,45.05
2016-02-05T07:03:57.556Z,45.15
2016-02-05T07:04:44.823Z,45.03
2016-02-05T07:06:10.515Z,45.51
2016-02-05T07:06:45.515Z,45.7
2016-02-05T07:07:44.908Z,45.7
2016-02-05T07:08:54.476Z,45.51
2016-02-05T07:10:20.182Z,45.73
2016-02-05T07:10:54.514Z,45.51
2016-02-05T07:13:09.754Z,45.73
2016-02-05T07:14:09.757Z,45.42
2016-02-05T07:16:50.671Z,45.32
2016-02-05T07:17:25.031Z,45.7
2016-02-05T07:18:25.049Z,45.22
2016-02-05T07:19:37.833Z,45.34
2016-02-05T07:20:25.085Z,45.42
2016-02-05T07:21:50.801Z,45.32
2016-02-05T07:22:44.348Z,45.61
2016-02-05T07:23:25.225Z,45.51
2016-02-05T07:24:51.075Z,45.32
2016-02-05T07:25:25.231Z,45.51
2016-02-05T07:26:25.265Z,45.32
2016-02-05T07:27:37.972Z,45.61
2016-02-05T07:28:34.850Z,45.25
2016-02-05T07:29:34.884Z,45.22
2016-02-05T07:30:47.669Z,45.51
2016-02-05T07:31:54.144Z,45.42
2016-02-05T07:32:38.128Z,45.32
2016-02-05T07:33:57.368Z,45.51
2016-02-05T07:34:44.463Z,45.42
2016-02-05T07:36:03.891Z,45.42
2016-02-05T07:36:47.797Z,45.32
2016-02-05T07:37:47.815Z,45.61
2016-02-05T07:38:47.990Z,45.51
2016-02-05T07:39:47.867Z,45.51
2016-02-05T07:40:47.902Z,45.32
2016-02-05T07:42:19.235Z,45.51
2016-02-05T07:43:03.112Z,45.32
2016-02-05T07:44:03.145Z,45.32
2016-02-05T07:45:03.915Z,45.22
2016-02-05T07:46:09.465Z,45.44
2016-02-05T07:47:03.233Z,45.42
2016-02-05T07:48:16.000Z,45.32
2016-02-05T07:49:03.269Z,45.53
2016-02-05T07:50:22.522Z,45.34
2016-02-05T07:51:03.539Z,45.51
2016-02-05T07:52:34.667Z,45.53
2016-02-05T07:53:18.577Z,45.53
2016-02-05T07:54:18.594Z,45.53
2016-02-05T07:55:31.335Z,45.63
2016-02-05T07:56:18.634Z,45.63
2016-02-05T07:57:44.340Z,45.63
2016-02-05T07:58:20.201Z,45.44
2016-02-05T07:59:50.626Z,45.44
2016-02-05T08:00:31.488Z,45.34
2016-02-05T08:01:18.762Z,45.25
2016-02-05T08:02:39.486Z,45.51
2016-02-05T08:03:25.099Z,46.11
2016-02-05T08:04:50.164Z,45.92
2016-02-05T08:05:34.152Z,46.21
2016-02-05T08:06:34.138Z,46.21
2016-02-05T08:07:46.891Z,46.21
2016-02-05T08:08:34.176Z,46.11
2016-02-05T08:09:59.884Z,46.5
2016-02-05T08:10:34.853Z,45.92
2016-02-05T08:12:47.046Z,45.92
2016-02-05T08:13:34.517Z,46.31
2016-02-05T08:14:34.348Z,46.4
2016-02-05T08:16:49.604Z,46.31
2016-02-05T08:17:49.606Z,46.5
2016-02-05T08:19:02.377Z,46.11
2016-02-05T08:19:49.677Z,45.92
2016-02-05T08:21:08.901Z,46.31
2016-02-05T08:21:49.744Z,46.21
2016-02-05T08:23:15.422Z,46.09
2016-02-05T08:24:05.659Z,45.92
2016-02-05T08:24:59.427Z,46.31
2016-02-05T08:25:59.446Z,46.01
2016-02-05T08:26:59.730Z,45.92
2016-02-05T08:27:59.500Z,45.73
2016-02-05T08:28:59.534Z,45.92
2016-02-05T08:30:12.303Z,46.4
2016-02-05T08:31:05.838Z,46.01
2016-02-05T08:31:59.607Z,46.01
2016-02-05T08:33:12.360Z,46.01
2016-02-05T08:34:25.330Z,46.31
2016-02-05T08:35:25.380Z,46.11
2016-02-05T08:36:34.930Z,46.4
2016-02-05T08:37:09.276Z,46.31
2016-02-05T08:38:09.326Z,46.31
2016-02-05T08:39:09.360Z,46.21
2016-02-05T08:40:15.832Z,46.31
2016-02-05T08:41:09.413Z,46.31
2016-02-05T08:42:22.181Z,46.31
2016-02-05T08:43:15.730Z,46.01
2016-02-05T08:44:28.686Z,46.31
2016-02-05T08:45:09.502Z,46.5
2016-02-05T08:46:35.208Z,46.21
2016-02-05T08:47:15.835Z,46.4
2016-02-05T08:48:40.902Z,46.21
2016-02-05T08:49:24.780Z,46.31
2016-02-05T08:50:24.830Z,46.5
2016-02-05T08:51:24.848Z,46.5
2016-02-05T08:52:40.040Z,46.5
2016-02-05T08:53:40.058Z,46.5
2016-02-05T08:54:52.811Z,46.31
2016-02-05T08:55:40.736Z,46.5
2016-02-05T08:57:05.819Z,46.21
2016-02-05T08:58:02.494Z,46.21
2016-02-05T08:59:08.777Z,46.11
2016-02-05T09:00:18.360Z,46.21
2016-02-05T09:01:49.662Z,46.11
2016-02-05T09:02:27.946Z,46.5
2016-02-05T09:03:53.715Z,46.5
2016-02-05T09:04:40.608Z,46.59
2016-02-05T09:07:49.807Z,46.69
2016-02-05T09:08:49.840Z,46.5
2016-02-05T09:09:56.124Z,46.59
2016-02-05T09:10:49.909Z,46.5
2016-02-05T09:11:49.911Z,46.5
2016-02-05T09:12:49.946Z,46.4
2016-02-05T09:14:02.705Z,46.11
2016-02-05T09:14:56.252Z,46.11
2016-02-05T09:16:15.712Z,46.21
2016-02-05T09:16:59.716Z,46.21
2016-02-05T09:19:40.518Z,46.31
2016-02-05T09:20:24.434Z,46.5
2016-02-05T09:21:24.421Z,46.31
2016-02-05T09:22:24.455Z,46.31
2016-02-05T09:23:30.739Z,46.31
2016-02-05T09:24:24.492Z,46.4
2016-02-05T09:25:37.280Z,46.31
2016-02-05T09:26:25.157Z,46.31
2016-02-05T09:27:43.800Z,46.31
2016-02-05T09:28:24.616Z,45.92
2016-02-05T09:30:39.824Z,45.92
2016-02-05T09:31:39.857Z,46.21
2016-02-05T09:32:52.626Z,45.83
2016-02-05T09:33:52.488Z,46.31
2016-02-05T09:34:59.148Z,45.73
2016-02-05T09:36:05.638Z,46.01
2016-02-05T09:36:39.997Z,46.11
2016-02-05T09:38:55.377Z,46.11
2016-02-05T09:39:55.395Z,45.92
2016-02-05T09:41:08.151Z,46.01
2016-02-05T09:42:08.169Z,46.31
2016-02-05T09:43:21.156Z,46.4
2016-02-05T09:44:24.236Z,46.4
2016-02-05T09:46:17.665Z,46.4
2016-02-05T09:49:20.927Z,45.92
2016-02-05T09:50:46.632Z,45.73
2016-02-05T09:51:24.853Z,45.73
2016-02-05T09:52:50.559Z,46.4
2016-02-05T09:53:24.907Z,46.5
2016-02-05T09:55:21.913Z,46.31
2016-02-05T09:55:35.116Z,45.92
2016-02-05T09:56:35.118Z,46.21
2016-02-05T09:57:35.168Z,46.11
2016-02-05T09:58:47.953Z,46.11
2016-02-05T09:59:35.206Z,46.11
2016-02-05T10:00:35.223Z,46.01
2016-02-05T10:01:35.273Z,46.01
2016-02-05T10:02:35.917Z,46.01
2016-02-05T10:03:48.045Z,45.53
2016-02-05T10:05:01.001Z,45.27
2016-02-05T10:05:57.677Z,44.89
2016-02-05T10:06:44.991Z,44.89
2016-02-05T10:08:54.591Z,45.65
2016-02-05T10:09:54.577Z,45.56
2016-02-05T10:11:09.771Z,45.53
2016-02-05T10:12:09.804Z,46.11
2016-02-05T10:14:25.045Z,46.01
2016-02-05T10:15:25.047Z,46.4
2016-02-05T10:16:25.098Z,46.21
2016-02-05T10:17:26.522Z,46.4
2016-02-05T10:18:31.420Z,46.4
2016-02-05T10:19:44.392Z,46.21
2016-02-05T10:20:37.940Z,46.21
2016-02-05T10:22:54.040Z,46.21
2016-02-05T10:23:37.903Z,46.31
2016-02-05T10:24:37.951Z,46.01
2016-02-05T10:25:37.986Z,46.4
2016-02-05T10:26:38.003Z,46.01
2016-02-05T10:27:44.289Z,46.01
2016-02-05T10:28:38.041Z,45.92
2016-02-05T10:29:38.090Z,45.92
2016-02-05T10:30:50.842Z,46.01
2016-02-05T10:32:03.802Z,45.83
2016-02-05T10:32:38.161Z,46.4
2016-02-05T10:34:09.481Z,45.92
2016-02-05T10:34:48.403Z,45.92
2016-02-05T10:36:14.081Z,46.11
2016-02-05T10:36:58.003Z,45.92
2016-02-05T10:37:58.053Z,45.83
2016-02-05T10:39:23.747Z,45.92
2016-02-05T10:40:05.016Z,45.83
2016-02-05T10:42:17.193Z,45.92
2016-02-05T10:43:17.196Z,46.31
2016-02-05T10:44:23.510Z,45.83
2016-02-05T10:45:23.545Z,46.21
2016-02-05T10:46:30.048Z,45.92
2016-02-05T10:47:30.065Z,45.83
2016-02-05T10:48:17.349Z,45.92
2016-02-05T10:49:43.056Z,45.92
2016-02-05T10:50:26.933Z,45.92
2016-02-05T10:51:46.186Z,45.73
2016-02-05T10:52:58.282Z,46.31
2016-02-05T10:54:01.347Z,46.01
2016-02-05T10:55:30.103Z,46.11
2016-02-05T10:56:30.137Z,46.11
2016-02-05T10:57:36.436Z,46.21
2016-02-05T10:58:36.439Z,46.4
2016-02-05T10:59:30.209Z,46.21
2016-02-05T11:00:42.992Z,46.21
2016-02-05T11:01:55.932Z,46.21
2016-02-05T11:02:55.969Z,46.5
2016-02-05T11:06:11.229Z,46.01
2016-02-05T11:07:11.263Z,46.01
2016-02-05T11:08:20.812Z,46.11
2016-02-05T11:09:20.846Z,46.5
2016-02-05T11:10:21.083Z,46.4
2016-02-05T11:11:27.165Z,46.4
2016-02-05T11:12:21.136Z,46.4
2016-02-05T11:13:40.155Z,46.31
2016-02-05T11:14:24.111Z,46.4
2016-02-05T11:15:49.800Z,46.21
2016-02-05T11:17:05.071Z,46.21
2016-02-05T11:18:30.498Z,46.31
2016-02-05T11:19:14.393Z,46.31
2016-02-05T11:20:24.020Z,46.31
2016-02-05T11:21:24.023Z,46.31
2016-02-05T11:22:33.572Z,46.5
2016-02-05T11:23:33.607Z,46.21
2016-02-05T11:24:33.642Z,46.5
2016-02-05T11:25:34.270Z,46.59
2016-02-05T11:26:46.444Z,46.5
2016-02-05T11:27:34.322Z,46.5
2016-02-05T11:30:46.533Z,46.5
2016-02-05T11:31:46.568Z,46.11
2016-02-05T11:32:46.603Z,46.59
2016-02-05T11:33:46.636Z,46.31
2016-02-05T11:34:46.655Z,46.21
2016-02-05T11:36:05.891Z,46.5
2016-02-05T11:36:51.197Z,46.5
2016-02-05T11:38:13.483Z,46.69
2016-02-05T11:39:19.987Z,46.69
2016-02-05T11:40:54.379Z,46.11
2016-02-05T11:41:32.726Z,46.21
2016-02-05T11:43:03.978Z,46.59
2016-02-05T11:43:47.903Z,46.31
2016-02-05T11:44:47.906Z,46.21
2016-02-05T11:46:19.223Z,46.4
2016-02-05T11:47:03.145Z,46.21
2016-02-05T11:48:22.385Z,46.59
2016-02-05T11:49:09.356Z,46.59
2016-02-05T11:50:32.031Z,46.69
2016-02-05T11:51:06.406Z,46.31
2016-02-05T11:53:15.977Z,46.59
2016-02-05T11:54:15.994Z,46.31
2016-02-05T11:55:22.310Z,46.5
2016-02-05T11:56:16.078Z,46.4
2016-02-05T11:57:28.878Z,46.21
2016-02-05T11:58:16.100Z,46.4
2016-02-05T11:59:35.353Z,46.4
2016-02-05T12:00:19.261Z,46.19
2016-02-05T12:01:44.967Z,46.31
2016-02-05T12:02:25.581Z,46.31
2016-02-05T12:04:34.526Z,46.21
2016-02-05T12:05:34.559Z,46.21
2016-02-05T12:06:47.312Z,46.31
2016-02-05T12:07:34.612Z,46.4
2016-02-05T12:08:53.834Z,46.21
2016-02-05T12:09:34.680Z,46.31
2016-02-05T12:10:34.718Z,46.4
2016-02-05T12:11:47.454Z,46.4
2016-02-05T12:12:34.739Z,46.4
2016-02-05T12:13:53.976Z,46.01
2016-02-05T12:14:35.400Z,46.21
2016-02-05T12:16:51.420Z,46.31
2016-02-05T12:17:51.457Z,46.11
2016-02-05T12:18:51.507Z,46.4
2016-02-05T12:20:04.275Z,46.11
2016-02-05T12:20:51.543Z,46.21
2016-02-05T12:22:10.768Z,46.11
2016-02-05T12:22:51.582Z,46.01
2016-02-05T12:24:22.978Z,46.31
2016-02-05T12:25:01.338Z,46.31
2016-02-05T12:26:32.797Z,46.31
2016-02-05T12:27:10.924Z,46.5
2016-02-05T12:28:42.349Z,46.5
2016-02-05T12:29:26.320Z,46.4
2016-02-05T12:30:26.326Z,46.5
2016-02-05T12:31:26.359Z,46.11
2016-02-05T12:32:26.409Z,46.01
2016-02-05T12:33:35.977Z,46.11
2016-02-05T12:34:45.591Z,45.92
2016-02-05T12:36:11.296Z,46.31
2016-02-05T12:37:20.863Z,46.31
2016-02-05T12:38:30.261Z,46.21
2016-02-05T12:39:43.200Z,46.4
2016-02-05T12:40:30.375Z,46.4
2016-02-05T12:41:48.909Z,46.01
2016-02-05T12:42:33.429Z,45.92
2016-02-05T12:44:36.731Z,46.11
2016-02-05T12:47:17.629Z,45.92
2016-02-05T12:47:51.989Z,46.01
2016-02-05T12:50:34.314Z,46.01
2016-02-05T12:51:08.674Z,46.01
2016-02-05T12:52:40.007Z,45.92
2016-02-05T12:53:23.884Z,45.83
2016-02-05T12:54:43.152Z,45.92
2016-02-05T12:55:23.940Z,45.83
2016-02-05T12:56:23.974Z,46.01
2016-02-05T12:57:30.477Z,46.01
2016-02-05T12:59:39.216Z,46.01
2016-02-05T13:00:39.283Z,46.01
2016-02-05T13:01:39.285Z,46.11
2016-02-05T13:02:54.507Z,46.01
2016-02-05T13:03:54.510Z,46.31
2016-02-05T13:06:10.354Z,46.11
2016-02-05T13:07:10.372Z,46.11
2016-02-05T13:08:36.097Z,46.01
2016-02-05T13:09:14.503Z,46.01
2016-02-05T13:10:45.824Z,46.21
2016-02-05T13:11:27.109Z,46.21
2016-02-05T13:12:24.111Z,46.31
2016-02-05T13:13:33.676Z,46.4
2016-02-05T13:14:33.710Z,46.31
2016-02-05T13:15:46.449Z,46.21
2016-02-05T13:16:33.747Z,46.11
2016-02-05T13:17:52.969Z,46.31
2016-02-05T13:19:05.722Z,46.31
2016-02-05T13:19:59.506Z,45.73
2016-02-05T13:20:33.868Z,45.83
2016-02-05T13:22:05.183Z,45.83
2016-02-05T13:22:43.639Z,45.92
2016-02-05T13:24:56.412Z,45.83
2016-02-05T13:25:43.711Z,46.11
2016-02-05T13:27:44.389Z,46.21
2016-02-05T13:28:43.799Z,46.01
2016-02-05T13:29:45.224Z,46.01
2016-02-05T13:30:43.838Z,45.83
2016-02-05T13:31:43.735Z,45.73
2016-02-05T13:32:44.559Z,45.44
2016-02-05T13:33:52.929Z,45.53
2016-02-05T13:34:44.015Z,45.63
2016-02-05T13:35:57.256Z,45.63
2016-02-05T13:37:14.179Z,45.63
2016-02-05T13:37:49.776Z,45.53
2016-02-05T13:39:19.026Z,45.53
2016-02-05T13:40:34.064Z,45.63
2016-02-05T13:41:12.314Z,45.63
2016-02-05T13:42:37.993Z,45.63
2016-02-05T13:43:21.930Z,45.63
2016-02-05T13:44:21.879Z,45.83
2016-02-05T13:45:53.209Z,45.83
2016-02-05T13:47:02.757Z,45.63
2016-02-05T13:47:37.117Z,45.63
2016-02-05T13:48:37.743Z,45.63
2016-02-05T13:49:47.574Z,45.44
2016-02-05T13:52:00.362Z,45.63
2016-02-05T13:52:57.333Z,45.63
2016-02-05T13:54:16.585Z,45.53
2016-02-05T13:55:00.353Z,45.63
2016-02-05T13:56:19.735Z,45.53
2016-02-05T13:59:15.759Z,45.53
2016-02-05T14:00:15.776Z,45.53
2016-02-05T14:01:15.795Z,45.53
2016-02-05T14:02:15.845Z,45.53
2016-02-05T14:03:28.602Z,45.53
2016-02-05T14:04:16.494Z,45.53
2016-02-05T14:06:38.250Z,45.44
2016-02-05T14:07:38.252Z,45.44
2016-02-05T14:08:51.040Z,45.53
2016-02-05T14:09:38.524Z,45.44
2016-02-05T14:11:48.563Z,45.53
2016-02-05T14:12:51.707Z,45.44
2016-02-05T14:14:17.397Z,45.34
2016-02-05T14:14:55.728Z,45.53
2016-02-05T14:16:55.767Z,45.53
2016-02-05T14:17:55.784Z,45.63
2016-02-05T14:18:55.803Z,45.44
2016-02-05T14:19:55.852Z,45.34
2016-02-05T14:20:55.870Z,45.44
2016-02-05T14:22:08.612Z,45.34
2016-02-05T14:23:15.114Z,45.53